sensor_id;sensor_type;location;lat;lon;timestamp;temperature;humidity
6752;DHT22;3413;47.680;9.166;2023-04-03T00:00:04;10.60;88.30
6752;DHT22;3413;47.680;9.166;2023-04-03T00:05:07;10.40;88.00
6752;DHT22;3413;47.680;9.166;2023-04-03T00:10:09;10.30;87.90
6752;DHT22;3413;47.680;9.166;2023-04-03T00:15:12;10.10;87.70
6752;DHT22;3413;47.680;9.166;2023-04-03T00:20:14;10.00;87.70
6752;DHT22;3413;47.680;9.166;2023-04-03T00:25:16;10.00;87.60
6752;DHT22;3413;47.680;9.166;2023-04-03T00:30:20;10.00;87.50
6752;DHT22;3413;47.680;9.166;2023-04-03T00:35:23;9.90;88.60
6752;DHT22;3413;47.680;9.166;2023-04-03T00:40:27;9.90;88.70
6752;DHT22;3413;47.680;9.166;2023-04-03T00:45:32;9.80;88.40
6752;DHT22;3413;47.680;9.166;2023-04-03T00:50:37;9.70;88.50
6752;DHT22;3413;47.680;9.166;2023-04-03T00:55:42;9.60;88.40
6752;DHT22;3413;47.680;9.166;2023-04-03T01:00:48;9.60;89.00
6752;DHT22;3413;47.680;9.166;2023-04-03T01:05:53;9.50;88.30
6752;DHT22;3413;47.680;9.166;2023-04-03T01:10:55;9.50;88.20
6752;DHT22;3413;47.680;9.166;2023-04-03T01:16:03;9.50;88.30
6752;DHT22;3413;47.680;9.166;2023-04-03T01:26:38;9.50;88.50
6752;DHT22;3413;47.680;9.166;2023-04-03T01:31:51;9.60;88.50
6752;DHT22;3413;47.680;9.166;2023-04-03T01:36:53;9.50;88.60
6752;DHT22;3413;47.680;9.166;2023-04-03T01:41:56;9.50;88.50
6752;DHT22;3413;47.680;9.166;2023-04-03T01:47:06;9.50;88.50
6752;DHT22;3413;47.680;9.166;2023-04-03T01:52:09;9.50;88.60
6752;DHT22;3413;47.680;9.166;2023-04-03T01:57:11;9.50;88.50
6752;DHT22;3413;47.680;9.166;2023-04-03T02:02:15;9.40;88.50
6752;DHT22;3413;47.680;9.166;2023-04-03T02:07:17;9.30;88.30
6752;DHT22;3413;47.680;9.166;2023-04-03T02:12:19;9.30;88.30
6752;DHT22;3413;47.680;9.166;2023-04-03T02:17:21;9.30;88.10
6752;DHT22;3413;47.680;9.166;2023-04-03T02:22:23;9.20;88.00
6752;DHT22;3413;47.680;9.166;2023-04-03T02:27:25;9.20;87.90
6752;DHT22;3413;47.680;9.166;2023-04-03T02:32:27;9.00;88.40
6752;DHT22;3413;47.680;9.166;2023-04-03T02:37:30;9.00;87.60
6752;DHT22;3413;47.680;9.166;2023-04-03T02:42:32;8.80;87.30
6752;DHT22;3413;47.680;9.166;2023-04-03T02:47:35;8.60;87.20
6752;DHT22;3413;47.680;9.166;2023-04-03T02:52:37;8.50;87.20
6752;DHT22;3413;47.680;9.166;2023-04-03T02:57:38;8.50;87.10
6752;DHT22;3413;47.680;9.166;2023-04-03T03:02:41;8.50;86.90
6752;DHT22;3413;47.680;9.166;2023-04-03T03:07:43;8.50;87.00
6752;DHT22;3413;47.680;9.166;2023-04-03T03:12:45;8.60;86.90
6752;DHT22;3413;47.680;9.166;2023-04-03T03:17:47;8.60;86.90
6752;DHT22;3413;47.680;9.166;2023-04-03T03:22:49;8.50;86.70
6752;DHT22;3413;47.680;9.166;2023-04-03T03:27:51;8.50;86.70
6752;DHT22;3413;47.680;9.166;2023-04-03T03:32:53;8.40;86.60
6752;DHT22;3413;47.680;9.166;2023-04-03T03:37:58;8.40;86.40
6752;DHT22;3413;47.680;9.166;2023-04-03T03:43:02;8.40;86.40
6752;DHT22;3413;47.680;9.166;2023-04-03T03:48:04;8.30;86.20
6752;DHT22;3413;47.680;9.166;2023-04-03T03:53:06;8.20;86.10
6752;DHT22;3413;47.680;9.166;2023-04-03T03:58:09;8.20;86.00
6752;DHT22;3413;47.680;9.166;2023-04-03T04:03:12;8.10;85.80
6752;DHT22;3413;47.680;9.166;2023-04-03T04:08:15;8.10;85.70
6752;DHT22;3413;47.680;9.166;2023-04-03T04:13:19;8.00;85.60
6752;DHT22;3413;47.680;9.166;2023-04-03T04:18:21;8.00;85.50
6752;DHT22;3413;47.680;9.166;2023-04-03T04:23:24;8.00;85.30
6752;DHT22;3413;47.680;9.166;2023-04-03T04:28:26;8.00;85.20
6752;DHT22;3413;47.680;9.166;2023-04-03T04:33:30;7.90;85.00
6752;DHT22;3413;47.680;9.166;2023-04-03T04:38:35;7.90;85.00
6752;DHT22;3413;47.680;9.166;2023-04-03T04:43:37;7.80;84.70
6752;DHT22;3413;47.680;9.166;2023-04-03T04:48:39;7.70;84.50
6752;DHT22;3413;47.680;9.166;2023-04-03T04:53:43;7.70;84.60
6752;DHT22;3413;47.680;9.166;2023-04-03T04:58:47;7.70;84.50
6752;DHT22;3413;47.680;9.166;2023-04-03T05:03:54;7.70;84.50
6752;DHT22;3413;47.680;9.166;2023-04-03T05:08:59;7.70;84.30
6752;DHT22;3413;47.680;9.166;2023-04-03T05:14:02;7.70;84.30
6752;DHT22;3413;47.680;9.166;2023-04-03T05:19:07;7.70;84.20
6752;DHT22;3413;47.680;9.166;2023-04-03T05:24:09;7.60;84.70
6752;DHT22;3413;47.680;9.166;2023-04-03T05:29:14;7.60;84.00
6752;DHT22;3413;47.680;9.166;2023-04-03T05:34:17;7.60;84.00
6752;DHT22;3413;47.680;9.166;2023-04-03T05:39:21;7.60;84.00
6752;DHT22;3413;47.680;9.166;2023-04-03T05:44:25;7.70;84.10
6752;DHT22;3413;47.680;9.166;2023-04-03T05:49:29;7.70;84.00
6752;DHT22;3413;47.680;9.166;2023-04-03T05:54:31;7.70;83.80
6752;DHT22;3413;47.680;9.166;2023-04-03T05:59:43;7.60;83.80
6752;DHT22;3413;47.680;9.166;2023-04-03T06:04:46;7.70;83.90
6752;DHT22;3413;47.680;9.166;2023-04-03T06:09:50;7.80;83.90
6752;DHT22;3413;47.680;9.166;2023-04-03T06:14:53;7.90;83.80
6752;DHT22;3413;47.680;9.166;2023-04-03T06:19:54;7.90;83.90
6752;DHT22;3413;47.680;9.166;2023-04-03T06:24:58;7.90;84.00
6752;DHT22;3413;47.680;9.166;2023-04-03T06:29:59;8.00;84.00
6752;DHT22;3413;47.680;9.166;2023-04-03T06:35:02;8.00;83.90
6752;DHT22;3413;47.680;9.166;2023-04-03T06:40:04;8.10;84.00
6752;DHT22;3413;47.680;9.166;2023-04-03T06:45:07;8.20;84.20
6752;DHT22;3413;47.680;9.166;2023-04-03T06:50:10;8.30;84.10
6752;DHT22;3413;47.680;9.166;2023-04-03T06:55:13;8.30;84.20
6752;DHT22;3413;47.680;9.166;2023-04-03T07:00:15;8.30;84.20
6752;DHT22;3413;47.680;9.166;2023-04-03T07:05:18;8.30;84.20
6752;DHT22;3413;47.680;9.166;2023-04-03T07:10:20;8.40;84.20
6752;DHT22;3413;47.680;9.166;2023-04-03T07:15:22;8.50;84.40
6752;DHT22;3413;47.680;9.166;2023-04-03T07:20:24;8.50;84.30
6752;DHT22;3413;47.680;9.166;2023-04-03T07:25:26;8.40;84.30
6752;DHT22;3413;47.680;9.166;2023-04-03T07:30:28;8.40;84.20
6752;DHT22;3413;47.680;9.166;2023-04-03T07:35:30;8.50;84.20
6752;DHT22;3413;47.680;9.166;2023-04-03T07:40:32;8.40;84.10
6752;DHT22;3413;47.680;9.166;2023-04-03T07:45:35;8.50;84.20
6752;DHT22;3413;47.680;9.166;2023-04-03T07:50:40;8.50;84.30
6752;DHT22;3413;47.680;9.166;2023-04-03T07:55:42;8.60;84.30
6752;DHT22;3413;47.680;9.166;2023-04-03T08:00:45;8.50;84.20
6752;DHT22;3413;47.680;9.166;2023-04-03T08:05:49;8.60;84.30
6752;DHT22;3413;47.680;9.166;2023-04-03T08:10:52;8.70;84.40
6752;DHT22;3413;47.680;9.166;2023-04-03T08:15:54;8.80;84.50
6752;DHT22;3413;47.680;9.166;2023-04-03T08:20:58;8.80;84.40
6752;DHT22;3413;47.680;9.166;2023-04-03T08:26:12;8.80;84.60
6752;DHT22;3413;47.680;9.166;2023-04-03T08:31:17;9.00;84.80
6752;DHT22;3413;47.680;9.166;2023-04-03T08:36:23;9.00;84.80
6752;DHT22;3413;47.680;9.166;2023-04-03T08:41:39;9.10;85.00
6752;DHT22;3413;47.680;9.166;2023-04-03T08:51:56;9.20;85.10
6752;DHT22;3413;47.680;9.166;2023-04-03T08:57:01;9.20;85.00
6752;DHT22;3413;47.680;9.166;2023-04-03T09:02:23;9.30;85.10
6752;DHT22;3413;47.680;9.166;2023-04-03T09:07:36;9.30;85.00
6752;DHT22;3413;47.680;9.166;2023-04-03T09:12:57;9.30;85.10
6752;DHT22;3413;47.680;9.166;2023-04-03T09:18:12;9.30;85.10
6752;DHT22;3413;47.680;9.166;2023-04-03T09:23:30;9.30;85.20
6752;DHT22;3413;47.680;9.166;2023-04-03T09:28:37;9.40;85.30
6752;DHT22;3413;47.680;9.166;2023-04-03T09:33:54;9.50;85.30
6752;DHT22;3413;47.680;9.166;2023-04-03T09:39:07;9.50;85.40
6752;DHT22;3413;47.680;9.166;2023-04-03T09:44:26;9.60;85.50
6752;DHT22;3413;47.680;9.166;2023-04-03T09:49:28;9.70;85.50
6752;DHT22;3413;47.680;9.166;2023-04-03T09:54:37;9.70;85.60
6752;DHT22;3413;47.680;9.166;2023-04-03T09:59:47;9.80;85.60
6752;DHT22;3413;47.680;9.166;2023-04-03T10:04:58;9.90;85.70
6752;DHT22;3413;47.680;9.166;2023-04-03T10:10:20;9.90;85.70
6752;DHT22;3413;47.680;9.166;2023-04-03T10:15:36;10.00;84.70
6752;DHT22;3413;47.680;9.166;2023-04-03T10:20:46;10.00;84.60
6752;DHT22;3413;47.680;9.166;2023-04-03T10:37:24;10.30;84.70
6752;DHT22;3413;47.680;9.166;2023-04-03T10:58:48;10.70;85.30
6752;DHT22;3413;47.680;9.166;2023-04-03T11:03:57;10.80;85.30
6752;DHT22;3413;47.680;9.166;2023-04-03T11:09:07;11.00;85.40
6752;DHT22;3413;47.680;9.166;2023-04-03T11:30:19;11.00;85.40
6752;DHT22;3413;47.680;9.166;2023-04-03T11:35:23;11.10;85.50
6752;DHT22;3413;47.680;9.166;2023-04-03T11:40:31;11.10;85.40
6752;DHT22;3413;47.680;9.166;2023-04-03T11:55:51;11.00;85.00
6752;DHT22;3413;47.680;9.166;2023-04-03T12:16:41;11.10;84.90
6752;DHT22;3413;47.680;9.166;2023-04-03T12:22:04;11.10;84.70
6752;DHT22;3413;47.680;9.166;2023-04-03T12:27:33;11.10;84.50
6752;DHT22;3413;47.680;9.166;2023-04-03T12:54:36;11.20;84.40
6752;DHT22;3413;47.680;9.166;2023-04-03T12:59:38;11.20;84.30
6752;DHT22;3413;47.680;9.166;2023-04-03T13:04:41;11.10;84.10
6752;DHT22;3413;47.680;9.166;2023-04-03T13:09:43;11.00;83.90
6752;DHT22;3413;47.680;9.166;2023-04-03T13:15:00;11.00;83.80
6752;DHT22;3413;47.680;9.166;2023-04-03T13:20:32;11.20;83.80
6752;DHT22;3413;47.680;9.166;2023-04-03T13:25:41;11.20;83.60
6752;DHT22;3413;47.680;9.166;2023-04-03T13:31:06;11.20;83.70
6752;DHT22;3413;47.680;9.166;2023-04-03T13:36:21;11.30;83.70
6752;DHT22;3413;47.680;9.166;2023-04-03T13:41:32;11.30;83.60
6752;DHT22;3413;47.680;9.166;2023-04-03T13:46:34;11.40;83.70
6752;DHT22;3413;47.680;9.166;2023-04-03T13:51:38;11.50;83.60
6752;DHT22;3413;47.680;9.166;2023-04-03T13:56:40;11.40;83.40
6752;DHT22;3413;47.680;9.166;2023-04-03T14:01:55;11.40;83.40
6752;DHT22;3413;47.680;9.166;2023-04-03T14:07:08;11.50;83.40
6752;DHT22;3413;47.680;9.166;2023-04-03T14:12:33;11.60;83.50
6752;DHT22;3413;47.680;9.166;2023-04-03T14:17:37;11.60;83.10
6752;DHT22;3413;47.680;9.166;2023-04-03T14:22:40;11.30;83.00
6752;DHT22;3413;47.680;9.166;2023-04-03T14:27:45;11.40;83.00
6752;DHT22;3413;47.680;9.166;2023-04-03T14:32:47;11.40;83.10
6752;DHT22;3413;47.680;9.166;2023-04-03T14:37:51;11.40;82.80
6752;DHT22;3413;47.680;9.166;2023-04-03T14:42:53;11.40;82.80
6752;DHT22;3413;47.680;9.166;2023-04-03T14:47:57;11.40;82.80
6752;DHT22;3413;47.680;9.166;2023-04-03T14:53:00;11.60;83.00
6752;DHT22;3413;47.680;9.166;2023-04-03T14:58:02;11.50;82.70
6752;DHT22;3413;47.680;9.166;2023-04-03T15:03:04;11.50;82.60
6752;DHT22;3413;47.680;9.166;2023-04-03T15:08:13;11.50;82.70
6752;DHT22;3413;47.680;9.166;2023-04-03T15:13:19;11.50;82.50
6752;DHT22;3413;47.680;9.166;2023-04-03T15:18:27;11.40;82.30
6752;DHT22;3413;47.680;9.166;2023-04-03T15:23:31;11.40;82.30
6752;DHT22;3413;47.680;9.166;2023-04-03T15:28:41;11.30;82.20
6752;DHT22;3413;47.680;9.166;2023-04-03T15:33:43;11.20;82.00
6752;DHT22;3413;47.680;9.166;2023-04-03T15:38:45;11.20;81.90
6752;DHT22;3413;47.680;9.166;2023-04-03T15:43:47;11.30;82.00
6752;DHT22;3413;47.680;9.166;2023-04-03T15:48:49;11.30;82.00
6752;DHT22;3413;47.680;9.166;2023-04-03T15:53:51;11.30;82.00
6752;DHT22;3413;47.680;9.166;2023-04-03T15:58:53;11.30;81.90
6752;DHT22;3413;47.680;9.166;2023-04-03T16:03:55;11.20;81.90
6752;DHT22;3413;47.680;9.166;2023-04-03T16:08:57;11.20;81.90
6752;DHT22;3413;47.680;9.166;2023-04-03T16:13:59;11.20;81.70
6752;DHT22;3413;47.680;9.166;2023-04-03T16:19:01;11.20;81.60
6752;DHT22;3413;47.680;9.166;2023-04-03T16:24:04;11.10;81.50
6752;DHT22;3413;47.680;9.166;2023-04-03T16:29:06;11.10;81.50
6752;DHT22;3413;47.680;9.166;2023-04-03T16:34:07;11.00;81.20
6752;DHT22;3413;47.680;9.166;2023-04-03T16:39:09;10.80;81.00
6752;DHT22;3413;47.680;9.166;2023-04-03T16:44:11;10.70;81.00
6752;DHT22;3413;47.680;9.166;2023-04-03T16:49:13;10.70;80.90
6752;DHT22;3413;47.680;9.166;2023-04-03T16:54:15;10.60;80.70
6752;DHT22;3413;47.680;9.166;2023-04-03T16:59:17;10.50;80.70
6752;DHT22;3413;47.680;9.166;2023-04-03T17:04:19;10.50;80.70
6752;DHT22;3413;47.680;9.166;2023-04-03T17:09:21;10.50;80.70
6752;DHT22;3413;47.680;9.166;2023-04-03T17:14:24;10.60;80.70
6752;DHT22;3413;47.680;9.166;2023-04-03T17:19:27;10.40;80.50
6752;DHT22;3413;47.680;9.166;2023-04-03T17:24:29;10.40;80.50
6752;DHT22;3413;47.680;9.166;2023-04-03T17:29:31;10.30;80.40
6752;DHT22;3413;47.680;9.166;2023-04-03T17:34:33;10.20;80.10
6752;DHT22;3413;47.680;9.166;2023-04-03T17:39:37;10.20;80.80
6752;DHT22;3413;47.680;9.166;2023-04-03T17:44:39;10.10;80.00
6752;DHT22;3413;47.680;9.166;2023-04-03T17:49:41;10.10;80.00
6752;DHT22;3413;47.680;9.166;2023-04-03T17:54:43;10.00;79.80
6752;DHT22;3413;47.680;9.166;2023-04-03T17:59:45;9.90;80.80
6752;DHT22;3413;47.680;9.166;2023-04-03T18:04:50;9.80;80.70
6752;DHT22;3413;47.680;9.166;2023-04-03T18:09:53;9.70;80.60
6752;DHT22;3413;47.680;9.166;2023-04-03T18:14:57;9.60;80.40
6752;DHT22;3413;47.680;9.166;2023-04-03T18:20:00;9.50;80.30
6752;DHT22;3413;47.680;9.166;2023-04-03T18:25:02;9.40;80.10
6752;DHT22;3413;47.680;9.166;2023-04-03T18:30:09;9.30;79.90
6752;DHT22;3413;47.680;9.166;2023-04-03T18:35:14;9.40;80.00
6752;DHT22;3413;47.680;9.166;2023-04-03T18:40:16;9.30;79.70
6752;DHT22;3413;47.680;9.166;2023-04-03T18:45:21;9.30;79.60
6752;DHT22;3413;47.680;9.166;2023-04-03T18:50:24;9.20;79.40
6752;DHT22;3413;47.680;9.166;2023-04-03T18:55:26;9.10;79.30
6752;DHT22;3413;47.680;9.166;2023-04-03T19:00:29;9.10;79.30
6752;DHT22;3413;47.680;9.166;2023-04-03T19:05:31;9.10;79.20
6752;DHT22;3413;47.680;9.166;2023-04-03T19:10:33;9.10;79.30
6752;DHT22;3413;47.680;9.166;2023-04-03T19:15:35;9.00;79.00
6752;DHT22;3413;47.680;9.166;2023-04-03T19:20:37;9.00;79.10
6752;DHT22;3413;47.680;9.166;2023-04-03T19:25:39;9.00;79.10
6752;DHT22;3413;47.680;9.166;2023-04-03T19:30:42;9.10;79.20
6752;DHT22;3413;47.680;9.166;2023-04-03T19:35:48;9.10;79.10
6752;DHT22;3413;47.680;9.166;2023-04-03T19:40:50;9.10;79.00
6752;DHT22;3413;47.680;9.166;2023-04-03T19:45:52;9.10;79.00
6752;DHT22;3413;47.680;9.166;2023-04-03T19:50:54;9.00;79.00
6752;DHT22;3413;47.680;9.166;2023-04-03T19:55:56;9.00;78.60
6752;DHT22;3413;47.680;9.166;2023-04-03T20:00:59;8.80;78.60
6752;DHT22;3413;47.680;9.166;2023-04-03T20:06:01;8.70;78.50
6752;DHT22;3413;47.680;9.166;2023-04-03T20:11:05;8.60;78.20
6752;DHT22;3413;47.680;9.166;2023-04-03T20:16:08;8.60;78.10
6752;DHT22;3413;47.680;9.166;2023-04-03T20:21:10;8.50;77.90
6752;DHT22;3413;47.680;9.166;2023-04-03T20:26:19;8.50;77.80
6752;DHT22;3413;47.680;9.166;2023-04-03T20:31:27;8.50;77.70
6752;DHT22;3413;47.680;9.166;2023-04-03T20:36:30;8.40;77.60
6752;DHT22;3413;47.680;9.166;2023-04-03T20:41:34;8.30;77.40
6752;DHT22;3413;47.680;9.166;2023-04-03T20:46:42;8.20;77.30
6752;DHT22;3413;47.680;9.166;2023-04-03T20:51:52;8.10;77.00
6752;DHT22;3413;47.680;9.166;2023-04-03T20:56:54;8.00;76.80
6752;DHT22;3413;47.680;9.166;2023-04-03T21:01:56;7.90;76.80
6752;DHT22;3413;47.680;9.166;2023-04-03T21:23:50;7.60;76.40
6752;DHT22;3413;47.680;9.166;2023-04-03T21:28:52;7.50;76.30
6752;DHT22;3413;47.680;9.166;2023-04-03T21:33:54;7.50;76.10
6752;DHT22;3413;47.680;9.166;2023-04-03T21:38:56;7.40;75.90
6752;DHT22;3413;47.680;9.166;2023-04-03T21:43:59;7.40;76.00
6752;DHT22;3413;47.680;9.166;2023-04-03T21:49:02;7.30;75.80
6752;DHT22;3413;47.680;9.166;2023-04-03T21:54:04;7.30;75.70
6752;DHT22;3413;47.680;9.166;2023-04-03T21:59:06;7.20;75.60
6752;DHT22;3413;47.680;9.166;2023-04-03T22:04:08;7.20;75.60
6752;DHT22;3413;47.680;9.166;2023-04-03T22:09:10;7.20;75.60
6752;DHT22;3413;47.680;9.166;2023-04-03T22:14:12;7.20;75.60
6752;DHT22;3413;47.680;9.166;2023-04-03T22:19:14;7.10;75.40
6752;DHT22;3413;47.680;9.166;2023-04-03T22:24:16;7.10;75.40
6752;DHT22;3413;47.680;9.166;2023-04-03T22:29:20;7.10;75.40
6752;DHT22;3413;47.680;9.166;2023-04-03T22:34:22;7.20;75.50
6752;DHT22;3413;47.680;9.166;2023-04-03T22:39:25;7.10;75.40
6752;DHT22;3413;47.680;9.166;2023-04-03T22:44:27;6.90;75.30
6752;DHT22;3413;47.680;9.166;2023-04-03T22:49:37;6.80;75.10
6752;DHT22;3413;47.680;9.166;2023-04-03T22:54:39;6.80;75.20
6752;DHT22;3413;47.680;9.166;2023-04-03T22:59:41;6.70;75.00
6752;DHT22;3413;47.680;9.166;2023-04-03T23:04:43;6.60;74.90
6752;DHT22;3413;47.680;9.166;2023-04-03T23:09:46;6.60;74.80
6752;DHT22;3413;47.680;9.166;2023-04-03T23:14:48;6.50;75.40
6752;DHT22;3413;47.680;9.166;2023-04-03T23:19:50;6.50;74.70
6752;DHT22;3413;47.680;9.166;2023-04-03T23:24:53;6.40;74.60
6752;DHT22;3413;47.680;9.166;2023-04-03T23:29:55;6.40;74.60
6752;DHT22;3413;47.680;9.166;2023-04-03T23:34:57;6.30;74.60
6752;DHT22;3413;47.680;9.166;2023-04-03T23:39:59;6.10;74.30
6752;DHT22;3413;47.680;9.166;2023-04-03T23:45:03;6.00;74.30
6752;DHT22;3413;47.680;9.166;2023-04-03T23:50:05;6.00;74.30
6752;DHT22;3413;47.680;9.166;2023-04-03T23:55:08;5.90;74.10
